sensor_id;sensor_type;location;lat;lon;timestamp;temperature;humidity
12166;DHT22;6146;48.128;11.476;2023-07-08T00:01:35;17.60;96.10
12166;DHT22;6146;48.128;11.476;2023-07-08T00:04:00;17.60;96.20
12166;DHT22;6146;48.128;11.476;2023-07-08T00:06:28;17.60;97.00
12166;DHT22;6146;48.128;11.476;2023-07-08T00:08:54;17.60;97.60
12166;DHT22;6146;48.128;11.476;2023-07-08T00:11:19;17.60;98.00
12166;DHT22;6146;48.128;11.476;2023-07-08T00:13:45;17.60;98.20
12166;DHT22;6146;48.128;11.476;2023-07-08T00:16:12;17.60;98.50
12166;DHT22;6146;48.128;11.476;2023-07-08T00:18:38;17.60;99.40
12166;DHT22;6146;48.128;11.476;2023-07-08T00:21:12;17.60;99.40
12166;DHT22;6146;48.128;11.476;2023-07-08T00:23:43;17.60;99.70
12166;DHT22;6146;48.128;11.476;2023-07-08T00:26:25;17.60;99.90
12166;DHT22;6146;48.128;11.476;2023-07-08T00:28:52;17.50;99.90
12166;DHT22;6146;48.128;11.476;2023-07-08T00:31:18;17.50;99.90
12166;DHT22;6146;48.128;11.476;2023-07-08T00:33:55;17.60;99.90
12166;DHT22;6146;48.128;11.476;2023-07-08T00:36:22;17.50;99.90
12166;DHT22;6146;48.128;11.476;2023-07-08T00:38:48;17.50;99.90
12166;DHT22;6146;48.128;11.476;2023-07-08T00:41:37;17.50;99.90
12166;DHT22;6146;48.128;11.476;2023-07-08T00:44:11;17.50;99.90
12166;DHT22;6146;48.128;11.476;2023-07-08T00:46:48;17.50;99.90
12166;DHT22;6146;48.128;11.476;2023-07-08T00:49:28;17.50;99.90
12166;DHT22;6146;48.128;11.476;2023-07-08T00:51:55;17.50;99.90
12166;DHT22;6146;48.128;11.476;2023-07-08T00:54:21;17.50;99.90
12166;DHT22;6146;48.128;11.476;2023-07-08T00:56:59;17.40;99.90
12166;DHT22;6146;48.128;11.476;2023-07-08T00:59:33;17.40;99.90
12166;DHT22;6146;48.128;11.476;2023-07-08T01:02:02;17.50;99.90
12166;DHT22;6146;48.128;11.476;2023-07-08T01:04:32;17.40;99.90
12166;DHT22;6146;48.128;11.476;2023-07-08T01:06:59;17.40;99.90
12166;DHT22;6146;48.128;11.476;2023-07-08T01:09:31;17.40;99.90
12166;DHT22;6146;48.128;11.476;2023-07-08T01:12:02;17.40;99.90
12166;DHT22;6146;48.128;11.476;2023-07-08T01:14:31;17.30;99.90
12166;DHT22;6146;48.128;11.476;2023-07-08T01:16:58;17.30;99.90
12166;DHT22;6146;48.128;11.476;2023-07-08T01:19:23;17.30;99.90
12166;DHT22;6146;48.128;11.476;2023-07-08T01:24:28;17.30;99.90
12166;DHT22;6146;48.128;11.476;2023-07-08T01:26:55;17.30;99.90
12166;DHT22;6146;48.128;11.476;2023-07-08T01:29:21;17.30;99.90
12166;DHT22;6146;48.128;11.476;2023-07-08T01:31:46;17.20;99.90
12166;DHT22;6146;48.128;11.476;2023-07-08T01:34:15;17.20;99.90
12166;DHT22;6146;48.128;11.476;2023-07-08T01:36:47;17.20;99.90
12166;DHT22;6146;48.128;11.476;2023-07-08T01:39:15;17.10;99.90
12166;DHT22;6146;48.128;11.476;2023-07-08T01:41:43;17.10;99.90
12166;DHT22;6146;48.128;11.476;2023-07-08T01:44:33;17.10;99.90
12166;DHT22;6146;48.128;11.476;2023-07-08T01:47:25;17.00;99.90
12166;DHT22;6146;48.128;11.476;2023-07-08T01:49:51;17.10;99.90
12166;DHT22;6146;48.128;11.476;2023-07-08T01:52:17;17.10;99.90
12166;DHT22;6146;48.128;11.476;2023-07-08T01:54:43;17.10;99.90
12166;DHT22;6146;48.128;11.476;2023-07-08T01:57:09;17.10;99.90
12166;DHT22;6146;48.128;11.476;2023-07-08T01:59:34;17.10;99.90
12166;DHT22;6146;48.128;11.476;2023-07-08T02:02:00;17.10;99.90
12166;DHT22;6146;48.128;11.476;2023-07-08T02:04:26;17.10;99.90
12166;DHT22;6146;48.128;11.476;2023-07-08T02:06:55;17.00;99.90
12166;DHT22;6146;48.128;11.476;2023-07-08T02:09:22;17.00;99.90
12166;DHT22;6146;48.128;11.476;2023-07-08T02:11:47;17.00;99.90
12166;DHT22;6146;48.128;11.476;2023-07-08T02:14:13;16.90;99.90
12166;DHT22;6146;48.128;11.476;2023-07-08T02:16:38;16.90;99.90
12166;DHT22;6146;48.128;11.476;2023-07-08T02:19:04;16.80;99.90
12166;DHT22;6146;48.128;11.476;2023-07-08T02:21:29;16.80;99.90
12166;DHT22;6146;48.128;11.476;2023-07-08T02:23:57;16.80;99.90
12166;DHT22;6146;48.128;11.476;2023-07-08T02:26:23;16.70;99.90
12166;DHT22;6146;48.128;11.476;2023-07-08T02:28:48;16.70;99.90
12166;DHT22;6146;48.128;11.476;2023-07-08T02:31:14;16.70;99.90
12166;DHT22;6146;48.128;11.476;2023-07-08T02:33:40;16.70;99.90
12166;DHT22;6146;48.128;11.476;2023-07-08T02:36:05;16.70;99.90
12166;DHT22;6146;48.128;11.476;2023-07-08T02:38:31;16.60;99.90
12166;DHT22;6146;48.128;11.476;2023-07-08T02:40:57;16.70;99.90
12166;DHT22;6146;48.128;11.476;2023-07-08T02:43:23;16.60;99.90
12166;DHT22;6146;48.128;11.476;2023-07-08T02:45:52;16.70;99.90
12166;DHT22;6146;48.128;11.476;2023-07-08T02:48:20;16.70;99.90
12166;DHT22;6146;48.128;11.476;2023-07-08T02:50:46;16.70;99.90
12166;DHT22;6146;48.128;11.476;2023-07-08T02:53:12;16.60;99.90
12166;DHT22;6146;48.128;11.476;2023-07-08T02:55:39;16.70;99.90
12166;DHT22;6146;48.128;11.476;2023-07-08T02:58:04;16.70;99.90
12166;DHT22;6146;48.128;11.476;2023-07-08T03:00:30;16.70;99.90
12166;DHT22;6146;48.128;11.476;2023-07-08T03:02:55;16.70;99.90
12166;DHT22;6146;48.128;11.476;2023-07-08T03:05:21;16.70;99.90
12166;DHT22;6146;48.128;11.476;2023-07-08T03:07:46;16.70;99.90
12166;DHT22;6146;48.128;11.476;2023-07-08T03:10:12;16.70;99.90
12166;DHT22;6146;48.128;11.476;2023-07-08T03:12:37;16.70;99.90
12166;DHT22;6146;48.128;11.476;2023-07-08T03:15:04;16.80;99.90
12166;DHT22;6146;48.128;11.476;2023-07-08T03:17:30;16.80;99.90
12166;DHT22;6146;48.128;11.476;2023-07-08T03:19:55;16.80;99.90
12166;DHT22;6146;48.128;11.476;2023-07-08T03:22:21;16.90;99.90
12166;DHT22;6146;48.128;11.476;2023-07-08T03:24:46;17.00;99.90
12166;DHT22;6146;48.128;11.476;2023-07-08T03:27:13;17.10;99.90
12166;DHT22;6146;48.128;11.476;2023-07-08T03:29:39;17.10;99.90
12166;DHT22;6146;48.128;11.476;2023-07-08T03:32:08;17.10;99.90
12166;DHT22;6146;48.128;11.476;2023-07-08T03:34:34;17.20;99.90
12166;DHT22;6146;48.128;11.476;2023-07-08T03:37:00;17.20;99.90
12166;DHT22;6146;48.128;11.476;2023-07-08T03:39:26;17.20;99.90
12166;DHT22;6146;48.128;11.476;2023-07-08T03:41:52;17.30;99.90
12166;DHT22;6146;48.128;11.476;2023-07-08T03:44:18;17.30;99.90
12166;DHT22;6146;48.128;11.476;2023-07-08T03:46:45;17.40;99.90
12166;DHT22;6146;48.128;11.476;2023-07-08T03:49:11;17.40;99.90
12166;DHT22;6146;48.128;11.476;2023-07-08T03:51:39;17.40;99.90
12166;DHT22;6146;48.128;11.476;2023-07-08T03:54:05;17.50;99.90
12166;DHT22;6146;48.128;11.476;2023-07-08T03:56:31;17.50;99.90
12166;DHT22;6146;48.128;11.476;2023-07-08T03:58:57;17.60;99.90
12166;DHT22;6146;48.128;11.476;2023-07-08T04:01:24;17.70;99.90
12166;DHT22;6146;48.128;11.476;2023-07-08T04:03:54;17.60;99.90
12166;DHT22;6146;48.128;11.476;2023-07-08T04:06:21;17.60;99.90
12166;DHT22;6146;48.128;11.476;2023-07-08T04:08:47;17.70;99.90
12166;DHT22;6146;48.128;11.476;2023-07-08T04:11:14;17.70;99.90
12166;DHT22;6146;48.128;11.476;2023-07-08T04:13:40;17.80;99.90
12166;DHT22;6146;48.128;11.476;2023-07-08T04:16:07;17.80;99.90
12166;DHT22;6146;48.128;11.476;2023-07-08T04:18:35;17.90;99.90
12166;DHT22;6146;48.128;11.476;2023-07-08T04:21:01;18.00;99.90
12166;DHT22;6146;48.128;11.476;2023-07-08T04:23:27;18.00;99.90
12166;DHT22;6146;48.128;11.476;2023-07-08T04:25:55;18.10;99.90
12166;DHT22;6146;48.128;11.476;2023-07-08T04:28:22;18.20;99.90
12166;DHT22;6146;48.128;11.476;2023-07-08T04:30:48;18.20;99.90
12166;DHT22;6146;48.128;11.476;2023-07-08T04:33:15;18.20;99.90
12166;DHT22;6146;48.128;11.476;2023-07-08T04:35:41;18.30;99.90
12166;DHT22;6146;48.128;11.476;2023-07-08T04:38:18;18.40;99.90
12166;DHT22;6146;48.128;11.476;2023-07-08T04:40:44;18.50;99.90
12166;DHT22;6146;48.128;11.476;2023-07-08T04:43:10;18.50;99.90
12166;DHT22;6146;48.128;11.476;2023-07-08T04:45:36;18.50;99.90
12166;DHT22;6146;48.128;11.476;2023-07-08T04:48:04;18.60;99.90
12166;DHT22;6146;48.128;11.476;2023-07-08T04:50:41;18.70;99.90
12166;DHT22;6146;48.128;11.476;2023-07-08T04:53:07;18.70;99.90
12166;DHT22;6146;48.128;11.476;2023-07-08T04:55:34;18.80;99.90
12166;DHT22;6146;48.128;11.476;2023-07-08T04:57:59;18.60;99.90
12166;DHT22;6146;48.128;11.476;2023-07-08T05:00:27;18.70;99.90
12166;DHT22;6146;48.128;11.476;2023-07-08T05:02:53;18.70;99.90
12166;DHT22;6146;48.128;11.476;2023-07-08T05:05:20;18.70;99.90
12166;DHT22;6146;48.128;11.476;2023-07-08T05:07:45;18.90;99.90
12166;DHT22;6146;48.128;11.476;2023-07-08T05:10:11;18.80;99.90
12166;DHT22;6146;48.128;11.476;2023-07-08T05:12:37;18.90;99.90
12166;DHT22;6146;48.128;11.476;2023-07-08T05:15:03;19.10;99.90
12166;DHT22;6146;48.128;11.476;2023-07-08T05:17:29;19.20;99.90
12166;DHT22;6146;48.128;11.476;2023-07-08T05:19:55;19.30;99.90
12166;DHT22;6146;48.128;11.476;2023-07-08T05:22:23;19.50;99.90
12166;DHT22;6146;48.128;11.476;2023-07-08T05:24:51;19.70;99.90
12166;DHT22;6146;48.128;11.476;2023-07-08T05:27:18;20.00;99.90
12166;DHT22;6146;48.128;11.476;2023-07-08T05:29:46;20.30;99.90
12166;DHT22;6146;48.128;11.476;2023-07-08T05:32:11;20.70;99.90
12166;DHT22;6146;48.128;11.476;2023-07-08T05:34:37;21.10;99.90
12166;DHT22;6146;48.128;11.476;2023-07-08T05:37:02;21.80;99.90
12166;DHT22;6146;48.128;11.476;2023-07-08T05:39:30;22.40;99.90
12166;DHT22;6146;48.128;11.476;2023-07-08T05:41:55;22.90;99.90
12166;DHT22;6146;48.128;11.476;2023-07-08T05:44:21;23.40;99.90
12166;DHT22;6146;48.128;11.476;2023-07-08T05:46:46;23.90;99.50
12166;DHT22;6146;48.128;11.476;2023-07-08T05:49:12;24.20;99.20
12166;DHT22;6146;48.128;11.476;2023-07-08T05:51:37;24.70;96.10
12166;DHT22;6146;48.128;11.476;2023-07-08T05:54:03;25.30;94.60
12166;DHT22;6146;48.128;11.476;2023-07-08T05:56:29;25.80;91.30
12166;DHT22;6146;48.128;11.476;2023-07-08T05:58:56;25.80;90.30
12166;DHT22;6146;48.128;11.476;2023-07-08T06:01:21;26.30;87.80
12166;DHT22;6146;48.128;11.476;2023-07-08T06:03:47;26.80;85.50
12166;DHT22;6146;48.128;11.476;2023-07-08T06:06:13;27.30;81.50
12166;DHT22;6146;48.128;11.476;2023-07-08T06:08:39;27.80;80.90
12166;DHT22;6146;48.128;11.476;2023-07-08T06:11:04;27.90;80.70
12166;DHT22;6146;48.128;11.476;2023-07-08T06:13:30;28.10;80.80
12166;DHT22;6146;48.128;11.476;2023-07-08T06:15:56;28.00;77.20
12166;DHT22;6146;48.128;11.476;2023-07-08T06:18:22;28.30;76.10
12166;DHT22;6146;48.128;11.476;2023-07-08T06:20:54;28.60;73.10
12166;DHT22;6146;48.128;11.476;2023-07-08T06:23:21;28.20;73.50
12166;DHT22;6146;48.128;11.476;2023-07-08T06:25:46;27.90;72.20
12166;DHT22;6146;48.128;11.476;2023-07-08T06:28:12;27.90;72.10
12166;DHT22;6146;48.128;11.476;2023-07-08T06:30:37;27.60;72.00
12166;DHT22;6146;48.128;11.476;2023-07-08T06:33:04;28.00;72.40
12166;DHT22;6146;48.128;11.476;2023-07-08T06:35:29;28.50;71.10
12166;DHT22;6146;48.128;11.476;2023-07-08T06:37:55;28.70;67.60
12166;DHT22;6146;48.128;11.476;2023-07-08T06:40:20;28.60;67.80
12166;DHT22;6146;48.128;11.476;2023-07-08T06:42:46;28.40;67.10
12166;DHT22;6146;48.128;11.476;2023-07-08T06:45:12;28.20;67.60
12166;DHT22;6146;48.128;11.476;2023-07-08T06:47:38;27.70;70.90
12166;DHT22;6146;48.128;11.476;2023-07-08T06:50:04;27.20;71.80
12166;DHT22;6146;48.128;11.476;2023-07-08T06:52:29;26.60;73.00
12166;DHT22;6146;48.128;11.476;2023-07-08T06:55:07;26.30;74.10
12166;DHT22;6146;48.128;11.476;2023-07-08T06:57:33;26.10;75.20
12166;DHT22;6146;48.128;11.476;2023-07-08T06:59:59;25.80;76.20
12166;DHT22;6146;48.128;11.476;2023-07-08T07:02:25;25.60;78.10
12166;DHT22;6146;48.128;11.476;2023-07-08T07:04:51;25.40;77.70
12166;DHT22;6146;48.128;11.476;2023-07-08T07:07:16;25.40;76.70
12166;DHT22;6146;48.128;11.476;2023-07-08T07:09:42;25.60;78.50
12166;DHT22;6146;48.128;11.476;2023-07-08T07:12:08;25.60;78.00
12166;DHT22;6146;48.128;11.476;2023-07-08T07:14:33;25.30;78.20
12166;DHT22;6146;48.128;11.476;2023-07-08T07:16:59;25.50;80.60
12166;DHT22;6146;48.128;11.476;2023-07-08T07:19:25;26.60;74.90
12166;DHT22;6146;48.128;11.476;2023-07-08T07:21:51;27.80;73.60
12166;DHT22;6146;48.128;11.476;2023-07-08T07:24:17;28.20;72.70
12166;DHT22;6146;48.128;11.476;2023-07-08T07:26:43;28.10;71.30
12166;DHT22;6146;48.128;11.476;2023-07-08T07:29:08;28.30;70.50
12166;DHT22;6146;48.128;11.476;2023-07-08T07:31:34;28.80;71.00
12166;DHT22;6146;48.128;11.476;2023-07-08T07:34:00;29.00;71.20
12166;DHT22;6146;48.128;11.476;2023-07-08T07:36:27;28.90;70.30
12166;DHT22;6146;48.128;11.476;2023-07-08T07:38:53;28.50;72.00
12166;DHT22;6146;48.128;11.476;2023-07-08T07:41:18;27.80;73.10
12166;DHT22;6146;48.128;11.476;2023-07-08T07:43:44;27.20;78.20
12166;DHT22;6146;48.128;11.476;2023-07-08T07:46:09;26.80;77.60
12166;DHT22;6146;48.128;11.476;2023-07-08T07:48:36;26.80;77.60
12166;DHT22;6146;48.128;11.476;2023-07-08T07:51:02;27.30;76.40
12166;DHT22;6146;48.128;11.476;2023-07-08T07:53:28;27.80;76.30
12166;DHT22;6146;48.128;11.476;2023-07-08T07:56:01;27.50;76.40
12166;DHT22;6146;48.128;11.476;2023-07-08T07:58:27;27.90;74.20
12166;DHT22;6146;48.128;11.476;2023-07-08T08:00:53;28.70;74.70
12166;DHT22;6146;48.128;11.476;2023-07-08T08:03:19;28.70;72.70
12166;DHT22;6146;48.128;11.476;2023-07-08T08:05:45;29.00;71.70
12166;DHT22;6146;48.128;11.476;2023-07-08T08:08:10;29.10;70.20
12166;DHT22;6146;48.128;11.476;2023-07-08T08:10:36;29.20;70.60
12166;DHT22;6146;48.128;11.476;2023-07-08T08:13:02;28.90;74.50
12166;DHT22;6146;48.128;11.476;2023-07-08T08:15:28;28.70;72.90
12166;DHT22;6146;48.128;11.476;2023-07-08T08:17:54;29.00;72.50
12166;DHT22;6146;48.128;11.476;2023-07-08T08:20:21;29.50;70.80
12166;DHT22;6146;48.128;11.476;2023-07-08T08:22:47;29.90;71.80
12166;DHT22;6146;48.128;11.476;2023-07-08T08:25:14;29.90;73.30
12166;DHT22;6146;48.128;11.476;2023-07-08T08:27:40;29.70;69.20
12166;DHT22;6146;48.128;11.476;2023-07-08T08:30:06;29.80;69.20
12166;DHT22;6146;48.128;11.476;2023-07-08T08:32:32;30.40;67.10
12166;DHT22;6146;48.128;11.476;2023-07-08T08:34:58;30.50;67.80
12166;DHT22;6146;48.128;11.476;2023-07-08T08:37:24;30.40;65.90
12166;DHT22;6146;48.128;11.476;2023-07-08T08:39:49;30.00;66.00
12166;DHT22;6146;48.128;11.476;2023-07-08T08:44:56;31.50;62.00
12166;DHT22;6146;48.128;11.476;2023-07-08T08:50:44;32.00;58.60
12166;DHT22;6146;48.128;11.476;2023-07-08T08:52:51;32.00;58.30
12166;DHT22;6146;48.128;11.476;2023-07-08T08:55:17;31.20;59.80
12166;DHT22;6146;48.128;11.476;2023-07-08T09:00:55;30.60;60.00
12166;DHT22;6146;48.128;11.476;2023-07-08T09:08:46;31.50;58.70
12166;DHT22;6146;48.128;11.476;2023-07-08T09:11:44;31.60;58.00
12166;DHT22;6146;48.128;11.476;2023-07-08T09:14:26;31.60;58.40
12166;DHT22;6146;48.128;11.476;2023-07-08T09:16:56;31.70;58.20
12166;DHT22;6146;48.128;11.476;2023-07-08T09:19:27;31.90;59.60
12166;DHT22;6146;48.128;11.476;2023-07-08T09:22:02;32.30;57.70
12166;DHT22;6146;48.128;11.476;2023-07-08T09:25:01;33.20;56.60
12166;DHT22;6146;48.128;11.476;2023-07-08T09:27:28;33.00;56.60
12166;DHT22;6146;48.128;11.476;2023-07-08T09:29:54;32.50;55.80
12166;DHT22;6146;48.128;11.476;2023-07-08T09:32:25;32.50;56.30
12166;DHT22;6146;48.128;11.476;2023-07-08T09:34:54;32.80;55.00
12166;DHT22;6146;48.128;11.476;2023-07-08T09:37:27;33.00;54.40
12166;DHT22;6146;48.128;11.476;2023-07-08T09:39:55;33.20;53.90
12166;DHT22;6146;48.128;11.476;2023-07-08T09:42:25;32.90;54.10
12166;DHT22;6146;48.128;11.476;2023-07-08T09:44:56;33.70;53.60
12166;DHT22;6146;48.128;11.476;2023-07-08T09:47:32;33.70;53.00
12166;DHT22;6146;48.128;11.476;2023-07-08T09:49:59;34.50;51.70
12166;DHT22;6146;48.128;11.476;2023-07-08T09:52:26;35.30;50.30
12166;DHT22;6146;48.128;11.476;2023-07-08T09:54:55;36.00;48.80
12166;DHT22;6146;48.128;11.476;2023-07-08T09:57:32;37.00;46.80
12166;DHT22;6146;48.128;11.476;2023-07-08T10:00:00;38.20;44.10
12166;DHT22;6146;48.128;11.476;2023-07-08T10:05:29;39.40;40.20
12166;DHT22;6146;48.128;11.476;2023-07-08T10:07:57;39.40;40.30
12166;DHT22;6146;48.128;11.476;2023-07-08T10:10:32;38.60;40.10
12166;DHT22;6146;48.128;11.476;2023-07-08T10:13:26;38.50;40.70
12166;DHT22;6146;48.128;11.476;2023-07-08T10:16:00;39.30;40.40
12166;DHT22;6146;48.128;11.476;2023-07-08T10:18:30;39.10;39.50
12166;DHT22;6146;48.128;11.476;2023-07-08T10:22:10;39.70;38.80
12166;DHT22;6146;48.128;11.476;2023-07-08T10:40:43;41.10;35.10
12166;DHT22;6146;48.128;11.476;2023-07-08T10:46:16;40.80;34.90
12166;DHT22;6146;48.128;11.476;2023-07-08T11:03:00;39.40;38.50
12166;DHT22;6146;48.128;11.476;2023-07-08T11:08:20;39.70;35.50
12166;DHT22;6146;48.128;11.476;2023-07-08T11:10:55;39.20;37.20
12166;DHT22;6146;48.128;11.476;2023-07-08T11:13:23;38.70;37.90
12166;DHT22;6146;48.128;11.476;2023-07-08T11:16:02;38.00;37.70
12166;DHT22;6146;48.128;11.476;2023-07-08T11:18:59;37.50;39.10
12166;DHT22;6146;48.128;11.476;2023-07-08T11:21:36;37.10;39.80
12166;DHT22;6146;48.128;11.476;2023-07-08T11:24:24;37.30;38.00
12166;DHT22;6146;48.128;11.476;2023-07-08T11:26:55;37.70;38.20
12166;DHT22;6146;48.128;11.476;2023-07-08T11:29:36;37.70;38.40
12166;DHT22;6146;48.128;11.476;2023-07-08T11:32:04;38.00;37.00
12166;DHT22;6146;48.128;11.476;2023-07-08T11:34:32;37.50;38.40
12166;DHT22;6146;48.128;11.476;2023-07-08T11:36:59;37.50;40.60
12166;DHT22;6146;48.128;11.476;2023-07-08T11:39:34;37.00;39.40
12166;DHT22;6146;48.128;11.476;2023-07-08T11:42:21;37.20;40.40
12166;DHT22;6146;48.128;11.476;2023-07-08T11:44:54;37.10;40.20
12166;DHT22;6146;48.128;11.476;2023-07-08T11:47:38;36.70;40.90
12166;DHT22;6146;48.128;11.476;2023-07-08T11:50:12;36.50;40.00
12166;DHT22;6146;48.128;11.476;2023-07-08T11:52:53;36.10;40.90
12166;DHT22;6146;48.128;11.476;2023-07-08T11:55:34;36.10;40.70
12166;DHT22;6146;48.128;11.476;2023-07-08T11:58:00;36.30;39.00
12166;DHT22;6146;48.128;11.476;2023-07-08T12:00:30;36.20;40.30
12166;DHT22;6146;48.128;11.476;2023-07-08T12:03:18;36.10;39.70
12166;DHT22;6146;48.128;11.476;2023-07-08T12:05:44;35.70;40.20
12166;DHT22;6146;48.128;11.476;2023-07-08T12:08:15;35.40;40.40
12166;DHT22;6146;48.128;11.476;2023-07-08T12:13:17;34.80;41.90
12166;DHT22;6146;48.128;11.476;2023-07-08T12:15:43;34.50;41.80
12166;DHT22;6146;48.128;11.476;2023-07-08T12:20:36;34.30;40.90
12166;DHT22;6146;48.128;11.476;2023-07-08T12:23:13;33.90;41.00
12166;DHT22;6146;48.128;11.476;2023-07-08T12:25:39;33.50;42.10
12166;DHT22;6146;48.128;11.476;2023-07-08T12:28:05;33.20;42.70
12166;DHT22;6146;48.128;11.476;2023-07-08T12:30:32;33.10;42.70
12166;DHT22;6146;48.128;11.476;2023-07-08T12:32:59;33.30;42.60
12166;DHT22;6146;48.128;11.476;2023-07-08T12:35:30;33.30;42.20
12166;DHT22;6146;48.128;11.476;2023-07-08T12:38:03;33.50;42.80
12166;DHT22;6146;48.128;11.476;2023-07-08T12:40:30;33.50;42.50
12166;DHT22;6146;48.128;11.476;2023-07-08T12:42:57;33.50;42.20
12166;DHT22;6146;48.128;11.476;2023-07-08T12:45:32;33.40;40.20
12166;DHT22;6146;48.128;11.476;2023-07-08T12:47:58;33.30;41.70
12166;DHT22;6146;48.128;11.476;2023-07-08T12:50:23;33.20;42.00
12166;DHT22;6146;48.128;11.476;2023-07-08T12:52:49;33.30;45.60
12166;DHT22;6146;48.128;11.476;2023-07-08T12:55:15;33.40;42.10
12166;DHT22;6146;48.128;11.476;2023-07-08T12:57:45;33.50;43.40
12166;DHT22;6146;48.128;11.476;2023-07-08T13:00:24;33.50;42.90
12166;DHT22;6146;48.128;11.476;2023-07-08T13:03:02;33.30;43.50
12166;DHT22;6146;48.128;11.476;2023-07-08T13:05:29;33.20;41.90
12166;DHT22;6146;48.128;11.476;2023-07-08T13:07:55;33.20;41.90
12166;DHT22;6146;48.128;11.476;2023-07-08T13:10:24;33.30;42.20
12166;DHT22;6146;48.128;11.476;2023-07-08T13:12:56;33.30;42.60
12166;DHT22;6146;48.128;11.476;2023-07-08T13:15:29;33.40;42.80
12166;DHT22;6146;48.128;11.476;2023-07-08T13:17:56;33.50;43.10
12166;DHT22;6146;48.128;11.476;2023-07-08T13:20:22;33.50;44.30
12166;DHT22;6146;48.128;11.476;2023-07-08T13:22:54;33.00;42.50
12166;DHT22;6146;48.128;11.476;2023-07-08T13:25:25;32.80;42.90
12166;DHT22;6146;48.128;11.476;2023-07-08T13:28:11;32.80;43.20
12166;DHT22;6146;48.128;11.476;2023-07-08T13:30:39;32.80;43.90
12166;DHT22;6146;48.128;11.476;2023-07-08T13:33:04;32.80;43.50
12166;DHT22;6146;48.128;11.476;2023-07-08T13:35:37;32.90;45.00
12166;DHT22;6146;48.128;11.476;2023-07-08T13:38:04;32.90;43.80
12166;DHT22;6146;48.128;11.476;2023-07-08T13:40:31;33.00;42.80
12166;DHT22;6146;48.128;11.476;2023-07-08T13:42:57;33.00;44.30
12166;DHT22;6146;48.128;11.476;2023-07-08T13:45:26;32.70;43.10
12166;DHT22;6146;48.128;11.476;2023-07-08T13:48:08;32.50;44.10
12166;DHT22;6146;48.128;11.476;2023-07-08T13:50:43;32.50;45.30
12166;DHT22;6146;48.128;11.476;2023-07-08T13:53:27;32.50;45.40
12166;DHT22;6146;48.128;11.476;2023-07-08T13:56:01;32.60;43.30
12166;DHT22;6146;48.128;11.476;2023-07-08T13:58:29;32.60;43.50
12166;DHT22;6146;48.128;11.476;2023-07-08T14:00:56;32.80;43.80
12166;DHT22;6146;48.128;11.476;2023-07-08T14:03:22;32.70;41.60
12166;DHT22;6146;48.128;11.476;2023-07-08T14:05:49;32.60;43.00
12166;DHT22;6146;48.128;11.476;2023-07-08T14:08:16;32.50;42.60
12166;DHT22;6146;48.128;11.476;2023-07-08T14:10:43;32.50;42.30
12166;DHT22;6146;48.128;11.476;2023-07-08T14:13:11;32.70;42.50
12166;DHT22;6146;48.128;11.476;2023-07-08T14:15:38;32.70;46.00
12166;DHT22;6146;48.128;11.476;2023-07-08T14:18:04;32.60;42.90
12166;DHT22;6146;48.128;11.476;2023-07-08T14:20:30;32.40;43.10
12166;DHT22;6146;48.128;11.476;2023-07-08T14:22:56;32.40;42.50
12166;DHT22;6146;48.128;11.476;2023-07-08T14:25:21;32.40;43.90
12166;DHT22;6146;48.128;11.476;2023-07-08T14:27:52;32.30;41.10
12166;DHT22;6146;48.128;11.476;2023-07-08T14:30:18;32.20;40.80
12166;DHT22;6146;48.128;11.476;2023-07-08T14:32:44;32.20;41.90
12166;DHT22;6146;48.128;11.476;2023-07-08T14:35:17;32.10;44.90
12166;DHT22;6146;48.128;11.476;2023-07-08T14:37:43;32.10;44.10
12166;DHT22;6146;48.128;11.476;2023-07-08T14:40:22;32.40;45.30
12166;DHT22;6146;48.128;11.476;2023-07-08T14:42:49;32.50;44.00
12166;DHT22;6146;48.128;11.476;2023-07-08T14:45:15;32.40;44.90
12166;DHT22;6146;48.128;11.476;2023-07-08T14:47:40;32.30;44.00
12166;DHT22;6146;48.128;11.476;2023-07-08T14:50:14;32.10;43.80
12166;DHT22;6146;48.128;11.476;2023-07-08T14:52:40;32.00;44.50
12166;DHT22;6146;48.128;11.476;2023-07-08T14:55:05;31.80;45.60
12166;DHT22;6146;48.128;11.476;2023-07-08T14:57:37;31.60;45.90
12166;DHT22;6146;48.128;11.476;2023-07-08T15:00:05;31.60;47.10
12166;DHT22;6146;48.128;11.476;2023-07-08T15:02:31;31.50;46.70
12166;DHT22;6146;48.128;11.476;2023-07-08T15:05:00;31.50;44.80
12166;DHT22;6146;48.128;11.476;2023-07-08T15:07:25;31.60;43.10
12166;DHT22;6146;48.128;11.476;2023-07-08T15:09:51;31.60;44.40
12166;DHT22;6146;48.128;11.476;2023-07-08T15:12:16;31.70;43.80
12166;DHT22;6146;48.128;11.476;2023-07-08T15:14:42;31.90;43.90
12166;DHT22;6146;48.128;11.476;2023-07-08T15:17:16;32.00;42.90
12166;DHT22;6146;48.128;11.476;2023-07-08T15:19:43;32.00;44.80
12166;DHT22;6146;48.128;11.476;2023-07-08T15:22:09;31.80;46.20
12166;DHT22;6146;48.128;11.476;2023-07-08T15:24:34;31.80;45.00
12166;DHT22;6146;48.128;11.476;2023-07-08T15:27:02;32.00;43.30
12166;DHT22;6146;48.128;11.476;2023-07-08T15:29:28;32.10;41.60
12166;DHT22;6146;48.128;11.476;2023-07-08T15:31:55;32.20;43.00
12166;DHT22;6146;48.128;11.476;2023-07-08T15:34:21;32.10;41.20
12166;DHT22;6146;48.128;11.476;2023-07-08T15:36:48;32.10;39.30
12166;DHT22;6146;48.128;11.476;2023-07-08T15:39:14;32.00;40.50
12166;DHT22;6146;48.128;11.476;2023-07-08T15:41:40;32.00;40.20
12166;DHT22;6146;48.128;11.476;2023-07-08T15:44:10;32.20;39.70
12166;DHT22;6146;48.128;11.476;2023-07-08T15:46:42;32.50;41.40
12166;DHT22;6146;48.128;11.476;2023-07-08T15:49:13;32.70;41.40
12166;DHT22;6146;48.128;11.476;2023-07-08T15:51:40;32.50;40.40
12166;DHT22;6146;48.128;11.476;2023-07-08T15:54:05;32.40;40.10
12166;DHT22;6146;48.128;11.476;2023-07-08T15:56:31;32.30;40.80
12166;DHT22;6146;48.128;11.476;2023-07-08T15:58:56;32.00;40.90
12166;DHT22;6146;48.128;11.476;2023-07-08T16:01:23;31.50;41.80
12166;DHT22;6146;48.128;11.476;2023-07-08T16:03:50;31.20;41.80
12166;DHT22;6146;48.128;11.476;2023-07-08T16:06:16;31.10;42.70
12166;DHT22;6146;48.128;11.476;2023-07-08T16:08:43;31.00;43.40
12166;DHT22;6146;48.128;11.476;2023-07-08T16:11:13;31.00;43.10
12166;DHT22;6146;48.128;11.476;2023-07-08T16:13:40;30.90;44.40
12166;DHT22;6146;48.128;11.476;2023-07-08T16:16:06;31.00;45.00
12166;DHT22;6146;48.128;11.476;2023-07-08T16:18:32;30.90;42.20
12166;DHT22;6146;48.128;11.476;2023-07-08T16:20:58;30.90;42.50
12166;DHT22;6146;48.128;11.476;2023-07-08T16:23:23;30.90;43.20
12166;DHT22;6146;48.128;11.476;2023-07-08T16:25:51;30.90;44.30
12166;DHT22;6146;48.128;11.476;2023-07-08T16:28:35;30.80;43.90
12166;DHT22;6146;48.128;11.476;2023-07-08T16:31:20;30.60;45.00
12166;DHT22;6146;48.128;11.476;2023-07-08T16:33:46;30.40;43.90
12166;DHT22;6146;48.128;11.476;2023-07-08T16:36:14;30.30;44.90
12166;DHT22;6146;48.128;11.476;2023-07-08T16:38:40;30.10;44.10
12166;DHT22;6146;48.128;11.476;2023-07-08T16:41:15;30.00;44.50